Time;durP1;ratioP1;P1;durP2;ratioP2;P2;SDS_P1;SDS_P2;PMS_P1;PMS_P2;Temp;Humidity;BMP_temperature;BMP_pressure;BME280_temperature;BME280_humidity;BME280_pressure;Samples;Min_cycle;Max_cycle;Signal;HPM_P1;HPM_P2
2023/08/05 00:02:17;;;;;;;7.18;3.10;;;;;;;18.69;74.13;101807.28;5012475;28;20042;-46
2023/08/05 00:04:42;;;;;;;5.15;3.05;;;;;;;18.63;74.36;101808.19;5013280;28;20079;-45
2023/08/05 00:07:08;;;;;;;6.38;2.70;;;;;;;18.62;74.63;101807.31;5013063;28;20042;-46
2023/08/05 00:09:33;;;;;;;5.70;2.83;;;;;;;18.65;74.84;101811.72;5013267;28;20125;-45
2023/08/05 00:11:58;;;;;;;5.30;2.70;;;;;;;18.70;75.02;101806.41;5012557;28;20038;-47
2023/08/05 00:14:23;;;;;;;5.28;2.67;;;;;;;18.76;75.15;101811.66;5012547;28;20096;-45
2023/08/05 00:16:49;;;;;;;5.88;2.60;;;;;;;18.85;75.29;101806.28;5013079;28;20046;-47
2023/08/05 00:19:14;;;;;;;6.13;2.60;;;;;;;18.87;75.54;101800.13;5012769;28;20081;-46
2023/08/05 00:21:39;;;;;;;6.43;2.55;;;;;;;18.91;75.55;101811.53;5012204;28;20034;-44
2023/08/05 00:24:05;;;;;;;6.03;3.10;;;;;;;18.93;75.72;101801.84;5012093;28;20030;-47
2023/08/05 00:26:30;;;;;;;4.60;2.88;;;;;;;18.97;75.89;101804.47;5013147;28;20053;-46
2023/08/05 00:28:55;;;;;;;5.10;2.90;;;;;;;19.03;75.66;101793.84;5013079;28;20488;-44
2023/08/05 00:31:21;;;;;;;4.18;2.85;;;;;;;19.09;75.83;101786.78;5012878;28;20030;-46
2023/08/05 00:33:46;;;;;;;5.05;2.50;;;;;;;19.13;75.66;101789.38;5012733;28;20037;-44
2023/08/05 00:36:11;;;;;;;5.78;2.63;;;;;;;19.21;75.45;101789.34;5012748;28;20132;-48
2023/08/05 00:38:37;;;;;;;4.15;2.38;;;;;;;19.14;75.26;101780.56;5013150;28;20044;-45
2023/08/05 00:41:03;;;;;;;6.30;2.60;;;;;;;19.13;75.22;101778.81;5012625;28;20065;-46
2023/08/05 00:43:28;;;;;;;4.32;2.60;;;;;;;19.15;75.13;101774.38;5012479;28;20034;-45
2023/08/05 00:45:55;;;;;;;4.88;2.70;;;;;;;19.20;74.92;101777.88;5012739;28;20037;-49
2023/08/05 00:48:22;;;;;;;4.10;2.70;;;;;;;19.16;75.10;101776.13;5012311;28;20116;-48
2023/08/05 00:50:47;;;;;;;5.63;3.10;;;;;;;19.02;75.89;101770.09;5012432;28;20068;-45
2023/08/05 00:53:14;;;;;;;7.85;3.08;;;;;;;19.01;76.33;101773.63;5010200;28;20034;-45
2023/08/05 00:55:40;;;;;;;6.90;3.17;;;;;;;19.01;76.92;101773.63;5012399;28;20121;-47
2023/08/05 00:58:05;;;;;;;5.68;2.85;;;;;;;18.95;76.88;101778.94;5011898;28;20034;-47
2023/08/05 01:00:31;;;;;;;5.20;2.78;;;;;;;19.13;76.57;101783.22;5012179;28;20052;-45
2023/08/05 01:02:57;;;;;;;5.75;2.70;;;;;;;19.31;75.97;101788.38;5012104;28;20453;-48
2023/08/05 01:05:23;;;;;;;4.70;2.70;;;;;;;19.40;75.61;101791.81;5012236;28;20037;-44
2023/08/05 01:07:49;;;;;;;5.93;2.90;;;;;;;19.34;75.66;101788.31;5012302;28;20038;-47
2023/08/05 01:10:14;;;;;;;5.68;3.00;;;;;;;19.18;76.60;101784.94;5011722;28;20088;-49
2023/08/05 01:12:41;;;;;;;5.70;2.92;;;;;;;19.34;76.29;101780.41;5012004;28;20698;-44
2023/08/05 01:15:07;;;;;;;5.53;2.80;;;;;;;19.53;75.52;101781.16;5011588;28;20034;-50
2023/08/05 01:17:33;;;;;;;5.57;3.00;;;;;;;19.65;75.17;101779.28;5012320;28;20509;-48
2023/08/05 01:20:00;;;;;;;4.70;3.20;;;;;;;19.66;75.04;101774.84;5012225;28;20046;-45
2023/08/05 01:22:43;;;;;;;5.68;3.30;;;;;;;19.65;74.43;101773.97;5009975;28;20519;-45
2023/08/05 01:25:31;;;;;;;5.63;3.10;;;;;;;19.68;74.47;101768.66;5011603;28;20030;-44
2023/08/05 01:27:58;;;;;;;7.82;3.10;;;;;;;19.72;74.23;101761.56;5012007;28;20038;-46
2023/08/05 01:30:25;;;;;;;5.22;2.97;;;;;;;19.71;73.79;101765.09;5011356;28;20048;-47
2023/08/05 01:32:52;;;;;;;5.43;2.95;;;;;;;19.76;73.68;101752.72;5011257;28;20087;-47
2023/08/05 01:35:21;;;;;;;5.65;3.00;;;;;;;19.72;73.43;101756.28;5011201;28;20053;-46
2023/08/05 01:37:46;;;;;;;6.28;3.00;;;;;;;19.71;73.21;101750.09;5011692;28;20042;-48
2023/08/05 01:40:13;;;;;;;7.85;3.00;;;;;;;19.72;72.90;101753.63;5011395;28;20462;-47
2023/08/05 01:42:38;;;;;;;5.10;2.80;;;;;;;19.77;72.54;101754.44;5011933;28;20067;-44
2023/08/05 01:45:04;;;;;;;4.25;2.92;;;;;;;19.80;72.10;101757.09;5011842;28;20034;-44
2023/08/05 01:47:30;;;;;;;7.85;2.70;;;;;;;19.78;72.05;101753.56;5012605;28;20049;-43
2023/08/05 01:49:55;;;;;;;5.03;2.58;;;;;;;19.80;72.03;101749.16;5012450;28;20108;-45
2023/08/05 01:52:20;;;;;;;6.57;2.70;;;;;;;19.76;72.02;101745.63;5011637;28;20073;-44
2023/08/05 01:54:45;;;;;;;6.43;3.17;;;;;;;19.81;71.87;101738.56;5011266;28;20038;-45
2023/08/05 01:57:11;;;;;;;5.95;3.08;;;;;;;19.80;71.49;101736.78;5010948;28;20135;-47
2023/08/05 01:59:36;;;;;;;5.60;2.90;;;;;;;19.81;71.47;101735.03;5011392;28;20544;-45
2023/08/05 02:02:01;;;;;;;4.97;2.90;;;;;;;19.74;71.67;101738.63;5010388;28;20037;-45
2023/08/05 02:04:27;;;;;;;7.00;2.90;;;;;;;19.77;71.66;101735.94;5010890;28;20060;-43
2023/08/05 02:06:52;;;;;;;5.75;2.80;;;;;;;19.81;71.54;101740.31;5011267;28;20128;-44
2023/08/05 02:09:17;;;;;;;4.75;2.63;;;;;;;19.74;71.71;101742.16;5010801;28;20044;-47
2023/08/05 02:11:43;;;;;;;4.80;2.80;;;;;;;19.73;71.84;101745.69;5011227;28;20084;-42
2023/08/05 02:14:08;;;;;;;3.97;2.10;;;;;;;19.78;71.61;101740.34;5010660;28;20488;-43
2023/08/05 02:16:34;;;;;;;4.00;2.00;;;;;;;19.64;72.13;101727.25;5011253;28;20033;-47
2023/08/05 02:18:59;;;;;;;4.80;2.20;;;;;;;19.38;73.26;101738.06;5010921;28;20034;-44
2023/08/05 02:21:25;;;;;;;4.35;2.30;;;;;;;19.50;73.06;101728.28;5010792;28;20041;-45
2023/08/05 02:23:52;;;;;;;4.80;2.00;;;;;;;19.61;72.49;101727.28;5010543;28;20030;-44
2023/08/05 02:26:17;;;;;;;4.05;1.92;;;;;;;19.65;72.16;101714.91;5011153;28;20471;-43
2023/08/05 02:28:42;;;;;;;5.13;2.20;;;;;;;19.67;71.96;101706.06;5011805;28;20034;-46
2023/08/05 02:31:07;;;;;;;3.50;2.00;;;;;;;19.62;72.12;101699.06;5010634;28;20045;-43
2023/08/05 02:33:33;;;;;;;4.35;2.20;;;;;;;19.54;72.44;101693.84;5010100;28;20092;-43
2023/08/05 02:35:59;;;;;;;3.75;2.00;;;;;;;19.49;72.71;101689.50;5011165;28;20068;-43
2023/08/05 02:38:25;;;;;;;3.67;2.20;;;;;;;19.47;72.88;101689.53;5011120;28;20056;-47
2023/08/05 02:40:50;;;;;;;3.20;1.90;;;;;;;19.46;72.90;101687.75;5010858;28;20680;-44
2023/08/05 02:43:16;;;;;;;5.68;2.70;;;;;;;19.41;73.42;101685.13;5009873;28;20115;-44
2023/08/05 02:45:41;;;;;;;5.63;2.85;;;;;;;19.42;72.82;101681.59;5010202;28;20456;-48
2023/08/05 02:48:07;;;;;;;5.53;2.60;;;;;;;19.45;73.10;101672.78;5009970;28;20077;-44
2023/08/05 02:50:32;;;;;;;3.38;2.20;;;;;;;19.44;73.31;101663.09;5010160;28;20038;-46
2023/08/05 02:52:58;;;;;;;3.60;2.50;;;;;;;19.46;73.15;101668.41;5010055;28;20374;-47
2023/08/05 02:55:23;;;;;;;4.05;2.67;;;;;;;19.41;73.35;101661.34;5010065;28;20097;-44
2023/08/05 02:57:48;;;;;;;4.22;2.75;;;;;;;19.43;73.55;101666.63;5010742;28;20032;-45
2023/08/05 03:00:14;;;;;;;5.28;2.90;;;;;;;19.46;73.59;101661.31;5008378;28;20104;-49
2023/08/05 03:02:40;;;;;;;4.63;3.00;;;;;;;19.54;73.31;101653.31;5010305;28;20057;-41
2023/08/05 03:05:05;;;;;;;6.15;3.20;;;;;;;19.53;73.36;101648.91;5012083;28;20045;-44
2023/08/05 03:07:31;;;;;;;6.50;2.90;;;;;;;19.51;73.61;101653.34;5010427;28;20034;-45
2023/08/05 03:09:56;;;;;;;6.35;2.90;;;;;;;19.51;73.83;101648.94;5010373;28;20803;-52
2023/08/05 03:12:21;;;;;;;4.47;2.70;;;;;;;19.56;74.04;101640.94;5009346;28;20087;-46
2023/08/05 03:14:47;;;;;;;4.85;2.70;;;;;;;19.60;73.75;101647.94;5009830;28;20321;-44
2023/08/05 03:17:12;;;;;;;6.30;3.20;;;;;;;19.58;73.98;101652.41;5008849;28;20038;-44
2023/08/05 03:19:38;;;;;;;5.65;3.15;;;;;;;19.49;74.04;101649.84;5009724;28;20132;-44
2023/08/05 03:22:03;;;;;;;5.78;2.80;;;;;;;19.58;73.80;101647.97;5008921;28;20498;-45
2023/08/05 03:24:28;;;;;;;5.82;2.80;;;;;;;19.63;73.51;101640.00;5009792;28;20419;-45
2023/08/05 03:26:54;;;;;;;4.85;2.88;;;;;;;19.67;73.29;101645.22;5007796;28;20042;-44
2023/08/05 03:29:19;;;;;;;5.10;2.92;;;;;;;19.62;73.35;101639.13;5009261;28;20045;-45
2023/08/05 03:31:44;;;;;;;4.40;2.70;;;;;;;19.62;73.35;101643.53;5009541;28;20527;-42
2023/08/05 03:34:10;;;;;;;3.83;2.60;;;;;;;19.64;73.14;101642.59;5009271;28;20100;-45
2023/08/05 03:36:36;;;;;;;4.55;2.60;;;;;;;19.63;73.26;101635.59;5009571;28;20412;-45
2023/08/05 03:39:02;;;;;;;5.38;2.80;;;;;;;19.63;73.18;101632.94;5009301;28;20030;-44
2023/08/05 03:41:27;;;;;;;6.53;2.63;;;;;;;19.61;73.15;101615.31;5008564;28;20030;-43
2023/08/05 03:43:52;;;;;;;4.35;2.50;;;;;;;19.63;73.01;101606.47;5007947;28;20092;-43
2023/08/05 03:46:18;;;;;;;5.78;2.63;;;;;;;19.61;73.14;101599.44;5008992;28;20037;-50
2023/08/05 03:48:43;;;;;;;4.03;2.63;;;;;;;19.58;73.43;101603.00;5009609;28;20034;-43
2023/08/05 03:51:09;;;;;;;5.05;2.80;;;;;;;19.61;73.25;101599.44;5009024;28;20034;-43
2023/08/05 03:53:35;;;;;;;6.70;2.67;;;;;;;19.59;73.33;101601.22;5009253;28;20112;-48
2023/08/05 03:56:01;;;;;;;5.80;2.72;;;;;;;19.53;73.69;101593.38;5009462;28;20030;-46
2023/08/05 03:58:26;;;;;;;5.50;3.30;;;;;;;19.67;73.41;101596.72;5009393;28;20060;-46
2023/08/05 04:00:51;;;;;;;5.70;3.10;;;;;;;19.69;73.23;101587.88;5009732;28;20064;-43
2023/08/05 04:03:17;;;;;;;5.03;2.85;;;;;;;19.79;72.81;101584.22;5007687;28;20026;-44
2023/08/05 04:05:43;;;;;;;4.72;2.80;;;;;;;19.78;72.68;101587.75;5010110;28;20242;-47
2023/08/05 04:08:08;;;;;;;4.95;2.80;;;;;;;19.78;72.89;101584.22;5011653;28;20675;-47
2023/08/05 04:10:35;;;;;;;5.22;2.75;;;;;;;19.68;73.13;101579.97;5010914;28;20038;-46
2023/08/05 04:13:03;;;;;;;5.68;2.90;;;;;;;19.65;73.29;101566.75;5008269;28;20030;-46
2023/08/05 04:15:30;;;;;;;7.10;3.20;;;;;;;19.48;74.25;101568.75;5009551;28;20034;-44
2023/08/05 04:17:59;;;;;;;5.20;3.42;;;;;;;19.63;73.72;101566.81;5009484;28;20048;-43
2023/08/05 04:20:27;;;;;;;5.60;3.47;;;;;;;19.62;73.63;101559.75;5008576;28;20031;-43
2023/08/05 04:22:53;;;;;;;5.88;3.60;;;;;;;19.67;73.58;101562.34;5009009;28;20045;-47
2023/08/05 04:25:18;;;;;;;6.60;4.00;;;;;;;19.62;73.74;101567.69;5008684;28;20037;-44
2023/08/05 04:27:43;;;;;;;5.50;3.50;;;;;;;19.67;73.80;101567.63;5008953;28;20545;-44
2023/08/05 04:30:09;;;;;;;5.88;3.78;;;;;;;19.71;73.40;101556.97;5012441;28;20461;-44
2023/08/05 04:32:34;;;;;;;6.95;3.60;;;;;;;19.76;73.25;101552.50;5012254;28;20111;-45
2023/08/05 04:35:00;;;;;;;6.10;3.58;;;;;;;19.76;73.14;101559.59;5012680;28;20030;-45
2023/08/05 04:37:27;;;;;;;6.57;3.53;;;;;;;19.77;73.33;101561.31;5012549;28;20034;-44
2023/08/05 04:39:53;;;;;;;6.38;3.50;;;;;;;19.74;73.11;101558.72;5012803;28;20041;-49
2023/08/05 04:42:18;;;;;;;7.00;3.60;;;;;;;19.75;72.92;101561.34;5010626;28;20057;-43
2023/08/05 04:44:43;;;;;;;5.72;3.80;;;;;;;19.73;73.32;101557.84;5011434;28;20053;-43
2023/08/05 04:47:10;;;;;;;6.20;3.47;;;;;;;19.75;73.08;101547.25;5012284;28;20137;-45
2023/08/05 04:49:36;;;;;;;7.30;3.90;;;;;;;19.79;73.13;101536.59;5013003;28;20112;-44
2023/08/05 04:52:06;;;;;;;7.75;4.30;;;;;;;19.81;73.04;101542.75;5011929;28;20065;-49
2023/08/05 04:54:35;;;;;;;7.80;3.70;;;;;;;19.74;73.41;101542.84;5012744;28;20062;-48
2023/08/05 04:57:01;;;;;;;6.13;3.75;;;;;;;19.80;73.27;101546.28;5012690;28;20095;-44
2023/08/05 04:59:26;;;;;;;8.90;4.05;;;;;;;19.85;73.33;101540.91;5012981;28;20514;-45
2023/08/05 05:01:51;;;;;;;6.60;3.42;;;;;;;19.85;73.05;101532.97;5012253;28;20072;-48
2023/08/05 05:04:16;;;;;;;7.15;3.97;;;;;;;19.84;73.12;101536.50;5011918;28;20472;-45
2023/08/05 05:06:42;;;;;;;6.45;3.60;;;;;;;19.88;72.94;101540.88;5012593;28;20049;-46
2023/08/05 05:09:07;;;;;;;7.57;3.97;;;;;;;19.87;73.02;101525.91;5011708;28;20512;-40
2023/08/05 05:11:32;;;;;;;6.20;3.92;;;;;;;19.83;72.99;101521.53;5012279;28;20129;-44
2023/08/05 05:13:58;;;;;;;8.15;3.60;;;;;;;19.78;73.81;101526.03;5011750;28;20048;-47
2023/08/05 05:16:23;;;;;;;4.68;3.40;;;;;;;19.90;73.19;101523.19;5011508;28;20116;-43
2023/08/05 05:18:48;;;;;;;5.10;3.50;;;;;;;19.97;72.98;101521.34;5012097;28;20069;-45
2023/08/05 05:21:14;;;;;;;6.85;3.63;;;;;;;19.94;73.33;101508.16;5011500;28;20040;-46
2023/08/05 05:23:39;;;;;;;7.35;3.65;;;;;;;19.71;74.04;101504.06;5011460;28;20038;-46
2023/08/05 05:26:05;;;;;;;7.45;3.40;;;;;;;19.62;74.18;101498.91;5011946;28;20113;-45
2023/08/05 05:28:30;;;;;;;6.00;3.50;;;;;;;19.70;73.88;101504.94;5011995;28;20057;-44
2023/08/05 05:30:58;;;;;;;5.28;3.22;;;;;;;19.93;73.35;101502.00;5011655;28;20519;-44
2023/08/05 05:33:23;;;;;;;6.03;3.38;;;;;;;20.15;72.66;101497.22;5010778;28;20037;-46
2023/08/05 05:35:50;;;;;;;3.97;2.95;;;;;;;20.22;72.32;101494.47;5011530;28;20072;-44
2023/08/05 05:38:15;;;;;;;5.78;3.05;;;;;;;20.30;72.43;101489.06;5011212;28;20034;-44
2023/08/05 05:40:40;;;;;;;5.82;3.15;;;;;;;20.34;72.27;101482.81;5010959;28;20041;-43
2023/08/05 05:43:07;;;;;;;9.38;3.80;;;;;;;20.13;72.84;101484.00;5010613;28;20554;-43
2023/08/05 05:45:34;;;;;;;4.85;3.10;;;;;;;20.42;71.76;101483.56;5011327;28;20042;-46
2023/08/05 05:48:00;;;;;;;5.53;3.03;;;;;;;20.30;72.22;101481.09;5011549;28;20030;-46
2023/08/05 05:50:25;;;;;;;4.75;3.10;;;;;;;20.32;72.12;101489.00;5010832;28;20053;-45
2023/08/05 05:52:51;;;;;;;10.13;6.20;;;;;;;20.33;71.76;101491.66;5009570;28;20064;-42
2023/08/05 05:55:17;;;;;;;5.85;3.50;;;;;;;20.30;71.85;101491.69;5010779;28;20044;-49
2023/08/05 05:57:43;;;;;;;5.22;3.00;;;;;;;20.35;71.50;101491.66;5011457;28;20034;-46
2023/08/05 06:00:09;;;;;;;5.53;3.00;;;;;;;20.42;71.32;101488.00;5010760;28;20038;-47
2023/08/05 06:02:35;;;;;;;6.05;3.00;;;;;;;20.45;71.31;101494.09;5009908;28;20041;-47
2023/08/05 06:05:00;;;;;;;5.90;2.97;;;;;;;20.59;71.27;101484.13;5010874;28;20026;-47
2023/08/05 06:07:25;;;;;;;4.25;2.50;;;;;;;20.86;70.67;101488.03;5009814;28;20048;-43
2023/08/05 06:09:51;;;;;;;4.68;2.72;;;;;;;20.84;70.21;101492.50;5010922;28;20037;-45
2023/08/05 06:12:18;;;;;;;4.63;2.58;;;;;;;21.00;69.54;101495.72;5010344;28;20108;-43
2023/08/05 06:14:43;;;;;;;5.57;2.63;;;;;;;21.17;69.05;101487.47;5011041;28;20176;-45
2023/08/05 06:17:08;;;;;;;4.20;2.60;;;;;;;21.22;68.67;101477.66;5010371;28;20113;-43
2023/08/05 06:19:34;;;;;;;4.97;2.25;;;;;;;21.87;68.18;101478.84;5011224;28;20506;-43
2023/08/05 06:21:59;;;;;;;4.93;2.45;;;;;;;23.08;64.17;101464.19;5010576;28;20073;-46
2023/08/05 06:24:24;;;;;;;6.88;2.60;;;;;;;23.94;58.77;101462.44;5010439;28;20157;-48
2023/08/05 06:26:50;;;;;;;4.50;2.78;;;;;;;24.42;56.54;101460.84;5010656;28;20072;-44
2023/08/05 06:29:15;;;;;;;3.30;2.10;;;;;;;25.76;54.45;101458.53;5010682;28;20042;-49
2023/08/05 06:31:40;;;;;;;5.88;2.80;;;;;;;26.69;49.97;101457.28;5011406;28;20044;-44
2023/08/05 06:34:06;;;;;;;5.20;2.10;;;;;;;27.42;48.08;101449.47;5009991;28;20044;-49
2023/08/05 06:36:31;;;;;;;4.85;2.30;;;;;;;27.95;46.94;101444.19;5011032;28;20088;-44
2023/08/05 06:38:56;;;;;;;5.85;2.33;;;;;;;28.27;43.29;101445.28;5011459;28;20076;-44
2023/08/05 06:41:23;;;;;;;5.90;2.67;;;;;;;28.11;43.11;101449.69;5011102;28;20113;-48
2023/08/05 06:43:49;;;;;;;4.88;2.88;;;;;;;27.94;43.73;101449.63;5010420;28;20038;-48
2023/08/05 06:46:15;;;;;;;5.68;3.00;;;;;;;27.76;45.35;101438.88;5010109;28;20497;-45
2023/08/05 06:48:41;;;;;;;7.13;4.15;;;;;;;27.23;44.66;101430.72;5010975;28;20104;-47
2023/08/05 06:51:06;;;;;;;7.65;3.67;;;;;;;26.31;46.69;101430.41;5009080;28;20065;-46
2023/08/05 06:53:33;;;;;;;7.20;4.00;;;;;;;25.89;49.74;101426.84;5010134;28;20112;-45
2023/08/05 06:56:03;;;;;;;7.82;4.35;;;;;;;25.39;49.20;101421.69;5010197;28;20069;-48
2023/08/05 06:58:28;;;;;;;7.00;4.15;;;;;;;25.58;49.37;101416.53;5010044;28;20041;-49
2023/08/05 07:00:53;;;;;;;6.47;4.15;;;;;;;25.21;51.20;101417.06;5009818;28;20045;-46
2023/08/05 07:03:19;;;;;;;10.27;4.30;;;;;;;24.92;51.13;101416.41;5009177;28;20038;-49
2023/08/05 07:05:44;;;;;;;8.23;4.00;;;;;;;24.24;53.67;101411.72;5009961;28;20053;-44
2023/08/05 07:08:10;;;;;;;6.00;3.88;;;;;;;24.26;54.05;101414.34;5009567;28;20034;-45
2023/08/05 07:10:35;;;;;;;7.07;4.07;;;;;;;23.78;56.08;101408.84;5010067;28;20083;-49
2023/08/05 07:13:05;;;;;;;6.53;3.47;;;;;;;24.16;54.63;101404.88;5009076;28;20026;-46
2023/08/05 07:15:31;;;;;;;6.40;3.67;;;;;;;23.48;55.61;101400.06;5009946;28;20040;-46
2023/08/05 07:17:56;;;;;;;4.10;3.13;;;;;;;23.85;55.26;101402.34;5010208;28;20404;-47
2023/08/05 07:20:21;;;;;;;5.15;3.30;;;;;;;23.99;53.99;101404.56;5009252;28;20555;-46
2023/08/05 07:22:47;;;;;;;5.20;3.33;;;;;;;23.85;53.93;101405.91;5009342;28;20045;-46
2023/08/05 07:25:12;;;;;;;5.63;3.53;;;;;;;24.00;53.76;101401.88;5007372;28;20523;-49
2023/08/05 07:27:37;;;;;;;9.50;3.30;;;;;;;23.86;54.40;101391.66;5009802;28;20475;-43
2023/08/05 07:30:03;;;;;;;6.53;3.13;;;;;;;24.18;52.43;101385.28;5009448;28;20496;-46
2023/08/05 07:32:30;;;;;;;5.10;3.20;;;;;;;24.24;53.31;101387.72;5009236;28;20049;-49
2023/08/05 07:34:56;;;;;;;7.53;3.70;;;;;;;24.48;51.56;101395.78;5007391;28;20037;-44
2023/08/05 07:37:21;;;;;;;6.60;3.60;;;;;;;24.06;52.33;101383.00;5009813;28;20038;-49
2023/08/05 07:39:48;;;;;;;6.07;4.00;;;;;;;24.11;52.23;101389.03;5009793;28;20041;-50
2023/08/05 07:42:19;;;;;;;6.28;4.00;;;;;;;23.69;54.14;101391.34;5008827;28;20054;-45
2023/08/05 07:44:46;;;;;;;7.63;4.32;;;;;;;23.42;55.35;101384.25;5009570;28;20041;-46
2023/08/05 07:47:11;;;;;;;9.07;4.82;;;;;;;23.55;55.11;101393.59;5009278;28;20049;-47
2023/08/05 07:49:37;;;;;;;9.70;4.82;;;;;;;23.56;55.17;101382.03;5008716;28;20125;-50
2023/08/05 07:52:06;;;;;;;8.73;5.00;;;;;;;24.09;53.75;101379.38;5007791;28;20038;-45
2023/08/05 07:54:32;;;;;;;6.80;5.00;;;;;;;24.42;53.07;101372.00;5009625;28;20046;-44
2023/08/05 07:56:58;;;;;;;9.10;5.03;;;;;;;24.56;53.38;101373.25;5008620;28;20468;-46
2023/08/05 07:59:25;;;;;;;10.15;5.10;;;;;;;24.75;53.10;101369.91;5008694;28;20130;-45
2023/08/05 08:01:52;;;;;;;6.43;4.35;;;;;;;25.62;50.45;101362.06;5009197;28;20727;-44
2023/08/05 08:04:18;;;;;;;8.93;4.97;;;;;;;25.81;48.88;101355.91;5012585;28;20041;-49
2023/08/05 08:06:45;;;;;;;7.40;4.90;;;;;;;26.01;47.91;101346.16;5013500;28;20464;-46
2023/08/05 08:09:11;;;;;;;6.32;4.30;;;;;;;25.86;48.16;101353.03;5012897;28;20049;-50
2023/08/05 08:11:36;;;;;;;7.20;4.63;;;;;;;25.41;48.54;101339.78;5013523;28;20042;-47
2023/08/05 08:14:03;;;;;;;6.90;4.88;;;;;;;25.68;48.38;101335.09;5012302;28;20045;-45
2023/08/05 08:16:28;;;;;;;8.02;4.97;;;;;;;24.81;50.78;101337.69;5012036;28;20034;-48
2023/08/05 08:18:54;;;;;;;10.20;4.95;;;;;;;24.92;51.06;101331.03;5013344;28;20459;-45
2023/08/05 08:21:19;;;;;;;8.55;4.75;;;;;;;24.90;50.37;101329.34;5012778;28;20038;-45
2023/08/05 08:23:45;;;;;;;7.20;4.32;;;;;;;24.92;51.60;101333.72;5012896;28;20081;-49
2023/08/05 08:26:10;;;;;;;7.93;4.80;;;;;;;25.48;49.92;101324.38;5012711;28;20128;-47
2023/08/05 08:28:35;;;;;;;7.53;4.90;;;;;;;25.51;49.52;101325.09;5013240;28;20095;-48
2023/08/05 08:31:00;;;;;;;6.93;4.15;;;;;;;25.70;49.59;101318.09;5012767;28;20456;-56
2023/08/05 08:33:27;;;;;;;6.82;4.90;;;;;;;25.59;48.64;101311.47;5012313;28;20037;-45
2023/08/05 08:35:53;;;;;;;6.65;4.40;;;;;;;25.49;50.76;101310.97;5013179;28;20030;-47
2023/08/05 08:38:19;;;;;;;10.82;4.97;;;;;;;25.17;50.66;101306.94;5012619;28;20041;-45
2023/08/05 08:40:56;;;;;;;9.55;5.60;;;;;;;25.23;49.69;101308.47;5011485;28;20034;-45
2023/08/05 08:43:22;;;;;;;9.98;5.82;;;;;;;24.44;51.51;101300.88;5011776;28;20033;-47
2023/08/05 08:45:52;;;;;;;7.78;5.70;;;;;;;24.31;52.98;101297.78;5011317;28;20039;-46
2023/08/05 08:48:18;;;;;;;8.98;5.03;;;;;;;24.94;52.11;101293.66;5013023;28;20049;-45
2023/08/05 08:50:44;;;;;;;7.95;4.47;;;;;;;25.38;51.02;101286.50;5012056;28;20386;-45
2023/08/05 08:53:13;;;;;;;10.38;5.10;;;;;;;24.99;51.68;101279.19;5012126;28;20029;-44
2023/08/05 08:55:42;;;;;;;8.98;5.03;;;;;;;25.25;50.08;101278.13;5012267;28;20049;-47
2023/08/05 08:58:09;;;;;;;8.77;5.10;;;;;;;25.22;50.08;101280.94;5012369;28;20041;-46
2023/08/05 09:00:35;;;;;;;8.30;5.30;;;;;;;25.00;49.82;101288.06;5012924;28;20121;-44
2023/08/05 09:03:01;;;;;;;10.18;5.80;;;;;;;23.74;53.63;101287.38;5011411;28;20060;-46
2023/08/05 09:05:35;;;;;;;8.32;5.28;;;;;;;24.16;53.45;101284.97;5012317;28;20385;-44
2023/08/05 09:08:03;;;;;;;11.98;5.15;;;;;;;24.07;53.48;101278.22;5011714;28;20444;-47
2023/08/05 09:10:28;;;;;;;8.20;5.05;;;;;;;23.82;53.82;101278.19;5012117;28;20064;-49
2023/08/05 09:12:57;;;;;;;9.45;5.47;;;;;;;23.64;54.27;101269.97;5010946;28;20652;-44
2023/08/05 09:15:30;;;;;;;12.40;4.97;;;;;;;23.80;53.82;101269.38;5004571;28;20276;-46
2023/08/05 09:17:56;;;;;;;9.10;4.75;;;;;;;23.95;53.69;101268.00;5012652;28;20077;-45
2023/08/05 09:20:24;;;;;;;6.90;4.60;;;;;;;23.99;52.86;101263.41;5012042;28;20030;-46
2023/08/05 09:22:57;;;;;;;9.02;4.50;;;;;;;24.04;53.46;101254.31;5011966;28;20037;-47
2023/08/05 09:25:23;;;;;;;8.45;4.57;;;;;;;23.90;53.83;101248.66;5011420;28;20041;-45
2023/08/05 09:27:53;;;;;;;10.02;4.43;;;;;;;23.66;53.80;101247.72;5011758;28;20041;-45
2023/08/05 09:30:20;;;;;;;13.77;4.60;;;;;;;23.78;53.43;101246.44;5011567;28;20042;-45
2023/08/05 09:32:46;;;;;;;9.65;4.18;;;;;;;24.23;52.18;101243.91;5011733;28;20037;-45
2023/08/05 09:35:13;;;;;;;8.38;4.43;;;;;;;24.28;52.46;101239.25;5011354;28;20030;-46
2023/08/05 09:37:39;;;;;;;6.45;4.03;;;;;;;24.25;51.67;101242.06;5011835;28;20099;-44
2023/08/05 09:40:17;;;;;;;9.02;4.05;;;;;;;23.72;54.48;101242.19;5011112;28;20093;-47
2023/08/05 09:42:47;;;;;;;6.13;3.80;;;;;;;23.67;53.28;101232.59;5010966;28;20508;-45
2023/08/05 09:45:15;;;;;;;6.38;4.07;;;;;;;23.63;52.66;101233.63;5011321;28;20087;-44
2023/08/05 09:47:52;;;;;;;7.50;3.80;;;;;;;23.44;53.81;101231.56;5011589;28;20034;-45
2023/08/05 09:50:18;;;;;;;5.30;3.70;;;;;;;22.82;54.80;101230.09;5011485;28;20041;-44
2023/08/05 09:52:44;;;;;;;7.00;3.50;;;;;;;23.39;53.17;101225.53;5011281;28;20034;-44
2023/08/05 09:55:16;;;;;;;10.90;3.50;;;;;;;23.17;54.38;101228.97;5011010;28;20069;-48
2023/08/05 09:57:42;;;;;;;5.05;3.10;;;;;;;23.59;52.51;101216.91;5011618;28;20037;-44
2023/08/05 10:00:11;;;;;;;5.72;2.83;;;;;;;23.59;50.88;101214.25;5011327;28;20408;-44
2023/08/05 10:02:38;;;;;;;4.60;2.60;;;;;;;24.01;49.70;101217.16;5011659;28;20128;-44
2023/08/05 10:05:05;;;;;;;6.53;2.90;;;;;;;24.37;49.20;101208.75;5011295;28;20042;-46
2023/08/05 10:07:30;;;;;;;5.15;2.60;;;;;;;24.61;48.04;101214.00;5011572;28;20064;-44
2023/08/05 10:09:57;;;;;;;5.00;2.60;;;;;;;25.13;47.94;101201.25;5011830;28;20496;-47
2023/08/05 10:12:32;;;;;;;8.65;3.35;;;;;;;24.54;47.14;101207.16;5010270;28;20022;-49
2023/08/05 10:15:00;;;;;;;4.72;2.67;;;;;;;24.94;46.89;101202.97;5010940;28;20070;-43
2023/08/05 10:17:26;;;;;;;5.90;3.40;;;;;;;24.86;46.47;101197.91;5010944;28;20041;-47
2023/08/05 10:19:52;;;;;;;5.80;3.17;;;;;;;24.89;46.77;101196.91;5010922;28;20068;-48
2023/08/05 10:22:25;;;;;;;7.45;3.85;;;;;;;24.67;46.56;101199.56;5011854;28;20038;-42
2023/08/05 10:24:51;;;;;;;7.05;4.10;;;;;;;24.37;47.73;101190.09;5012263;28;20650;-45
2023/08/05 10:27:16;;;;;;;6.85;4.20;;;;;;;24.63;47.92;101185.50;5010920;28;20038;-45
2023/08/05 10:29:55;;;;;;;14.25;4.82;;;;;;;24.62;49.09;101191.75;5011045;28;20121;-44
2023/08/05 10:32:29;;;;;;;10.68;5.07;;;;;;;23.60;48.71;101184.06;5010517;28;20121;-45
2023/08/05 10:35:26;;;;;;;9.75;5.60;;;;;;;23.26;50.41;101186.09;5011362;28;20037;-43
2023/08/05 10:38:06;;;;;;;8.90;5.32;;;;;;;23.08;51.33;101186.72;5010715;28;20443;-45
2023/08/05 10:40:40;;;;;;;9.80;5.63;;;;;;;22.90;52.24;101182.88;5010626;28;20109;-45
2023/08/05 10:43:06;;;;;;;8.73;5.25;;;;;;;23.22;51.42;101187.13;5010172;28;20049;-44
2023/08/05 10:45:35;;;;;;;8.75;5.10;;;;;;;23.26;51.73;101183.44;5010847;28;20041;-46
2023/08/05 10:48:07;;;;;;;9.75;6.20;;;;;;;22.79;53.03;101172.59;5010168;28;20062;-45
2023/08/05 10:50:37;;;;;;;9.15;5.88;;;;;;;22.82;52.79;101171.59;5010344;28;20037;-45
2023/08/05 10:53:12;;;;;;;11.93;6.28;;;;;;;22.54;54.14;101177.78;5009591;28;20046;-46
2023/08/05 10:56:08;;;;;;;9.00;5.47;;;;;;;22.60;53.93;101171.41;5010084;28;20522;-47
2023/08/05 10:58:35;;;;;;;10.88;6.13;;;;;;;22.40;53.87;101179.09;5008678;28;20034;-46
2023/08/05 11:01:03;;;;;;;10.15;5.90;;;;;;;22.20;55.01;101174.41;5009765;28;20045;-45
2023/08/05 11:03:49;;;;;;;8.60;6.00;;;;;;;22.28;55.54;101183.00;5009716;28;20091;-49
2023/08/05 11:06:24;;;;;;;12.15;6.13;;;;;;;21.82;58.08;101175.50;5009806;28;20558;-47
2023/08/05 11:08:50;;;;;;;8.85;5.68;;;;;;;21.96;59.07;101169.78;5009307;28;20029;-46
2023/08/05 11:11:16;;;;;;;8.32;4.78;;;;;;;21.57;59.33;101169.13;5008732;28;20037;-44
2023/08/05 11:13:46;;;;;;;9.52;5.05;;;;;;;21.81;58.87;101158.69;5009605;28;20035;-44
2023/08/05 11:16:18;;;;;;;8.93;4.93;;;;;;;21.74;59.74;101158.91;5009602;28;20033;-46
2023/08/05 11:18:56;;;;;;;10.40;5.05;;;;;;;21.59;59.06;101146.91;5010024;28;20038;-44
2023/08/05 11:21:22;;;;;;;7.40;4.53;;;;;;;21.84;58.42;101153.28;5009584;28;20026;-45
2023/08/05 11:23:48;;;;;;;10.40;4.63;;;;;;;21.94;58.44;101155.69;5009252;28;20049;-45